sensor_id;sensor_type;location;lat;lon;timestamp;P1;durP1;ratioP1;P2;durP2;ratioP2
55288;SDS011;41154;45.394;5.734;2022-12-31T00:02:13;21.52;;;10.10;;
55288;SDS011;41154;45.394;5.734;2022-12-31T00:04:39;20.52;;;10.50;;
55288;SDS011;41154;45.394;5.734;2022-12-31T00:07:05;18.27;;;9.52;;
55288;SDS011;41154;45.394;5.734;2022-12-31T00:09:30;17.40;;;9.30;;
55288;SDS011;41154;45.394;5.734;2022-12-31T00:11:56;17.90;;;9.00;;
55288;SDS011;41154;45.394;5.734;2022-12-31T00:14:22;17.55;;;9.18;;
55288;SDS011;41154;45.394;5.734;2022-12-31T00:16:47;15.60;;;9.15;;
55288;SDS011;41154;45.394;5.734;2022-12-31T00:19:13;16.52;;;9.60;;
55288;SDS011;41154;45.394;5.734;2022-12-31T00:21:39;19.02;;;9.13;;
55288;SDS011;41154;45.394;5.734;2022-12-31T00:24:05;14.85;;;8.57;;
55288;SDS011;41154;45.394;5.734;2022-12-31T00:26:32;16.48;;;8.60;;
55288;SDS011;41154;45.394;5.734;2022-12-31T00:28:59;16.25;;;9.13;;
55288;SDS011;41154;45.394;5.734;2022-12-31T00:31:29;17.52;;;8.25;;
55288;SDS011;41154;45.394;5.734;2022-12-31T00:33:57;18.85;;;8.65;;
55288;SDS011;41154;45.394;5.734;2022-12-31T00:36:24;16.92;;;7.82;;
55288;SDS011;41154;45.394;5.734;2022-12-31T00:38:53;17.50;;;9.02;;
55288;SDS011;41154;45.394;5.734;2022-12-31T00:41:20;14.80;;;7.65;;
55288;SDS011;41154;45.394;5.734;2022-12-31T00:43:47;14.45;;;7.70;;
55288;SDS011;41154;45.394;5.734;2022-12-31T00:46:14;12.40;;;7.07;;
55288;SDS011;41154;45.394;5.734;2022-12-31T00:48:40;11.75;;;6.85;;
55288;SDS011;41154;45.394;5.734;2022-12-31T00:51:08;13.02;;;6.72;;
55288;SDS011;41154;45.394;5.734;2022-12-31T00:53:35;11.50;;;6.75;;
55288;SDS011;41154;45.394;5.734;2022-12-31T00:56:04;12.00;;;6.00;;
55288;SDS011;41154;45.394;5.734;2022-12-31T00:58:32;9.35;;;6.00;;
55288;SDS011;41154;45.394;5.734;2022-12-31T01:01:09;10.18;;;5.53;;
55288;SDS011;41154;45.394;5.734;2022-12-31T01:03:36;9.20;;;4.95;;
55288;SDS011;41154;45.394;5.734;2022-12-31T01:06:02;9.45;;;4.30;;
55288;SDS011;41154;45.394;5.734;2022-12-31T01:08:28;10.02;;;5.25;;
55288;SDS011;41154;45.394;5.734;2022-12-31T01:10:54;13.02;;;6.38;;
55288;SDS011;41154;45.394;5.734;2022-12-31T01:13:38;12.38;;;5.60;;
55288;SDS011;41154;45.394;5.734;2022-12-31T01:16:11;10.15;;;5.25;;
55288;SDS011;41154;45.394;5.734;2022-12-31T01:18:38;10.52;;;5.30;;
55288;SDS011;41154;45.394;5.734;2022-12-31T01:21:05;8.85;;;5.07;;
55288;SDS011;41154;45.394;5.734;2022-12-31T01:23:32;8.95;;;4.15;;
55288;SDS011;41154;45.394;5.734;2022-12-31T01:25:59;8.45;;;4.30;;
55288;SDS011;41154;45.394;5.734;2022-12-31T01:28:25;11.80;;;6.78;;
55288;SDS011;41154;45.394;5.734;2022-12-31T01:30:51;13.60;;;6.55;;
55288;SDS011;41154;45.394;5.734;2022-12-31T01:33:17;13.65;;;6.88;;
55288;SDS011;41154;45.394;5.734;2022-12-31T01:35:44;13.35;;;7.00;;
55288;SDS011;41154;45.394;5.734;2022-12-31T01:38:09;15.75;;;7.60;;
55288;SDS011;41154;45.394;5.734;2022-12-31T01:40:36;17.10;;;8.30;;
55288;SDS011;41154;45.394;5.734;2022-12-31T01:43:05;26.20;;;9.52;;
55288;SDS011;41154;45.394;5.734;2022-12-31T01:45:58;27.30;;;11.85;;
55288;SDS011;41154;45.394;5.734;2022-12-31T01:48:24;21.15;;;10.88;;
55288;SDS011;41154;45.394;5.734;2022-12-31T01:50:51;18.90;;;10.55;;
55288;SDS011;41154;45.394;5.734;2022-12-31T01:53:19;24.88;;;11.10;;
55288;SDS011;41154;45.394;5.734;2022-12-31T01:58:24;22.58;;;10.52;;
55288;SDS011;41154;45.394;5.734;2022-12-31T02:00:54;21.83;;;10.10;;
55288;SDS011;41154;45.394;5.734;2022-12-31T02:03:23;21.30;;;9.95;;
55288;SDS011;41154;45.394;5.734;2022-12-31T02:05:55;21.48;;;10.80;;
55288;SDS011;41154;45.394;5.734;2022-12-31T02:08:25;19.52;;;9.35;;
55288;SDS011;41154;45.394;5.734;2022-12-31T02:10:51;22.10;;;10.38;;
55288;SDS011;41154;45.394;5.734;2022-12-31T02:13:17;27.17;;;11.25;;
55288;SDS011;41154;45.394;5.734;2022-12-31T02:15:49;31.27;;;12.90;;
55288;SDS011;41154;45.394;5.734;2022-12-31T02:26:52;18.02;;;9.05;;
55288;SDS011;41154;45.394;5.734;2022-12-31T02:35:06;16.35;;;7.10;;
55288;SDS011;41154;45.394;5.734;2022-12-31T02:37:37;15.07;;;6.78;;
55288;SDS011;41154;45.394;5.734;2022-12-31T02:40:06;12.05;;;6.68;;
55288;SDS011;41154;45.394;5.734;2022-12-31T02:42:36;16.98;;;7.85;;
55288;SDS011;41154;45.394;5.734;2022-12-31T02:45:01;13.20;;;8.00;;
55288;SDS011;41154;45.394;5.734;2022-12-31T02:53:17;12.57;;;7.43;;
55288;SDS011;41154;45.394;5.734;2022-12-31T02:55:54;13.40;;;7.22;;
55288;SDS011;41154;45.394;5.734;2022-12-31T03:01:29;9.90;;;6.25;;
55288;SDS011;41154;45.394;5.734;2022-12-31T03:04:18;11.98;;;6.85;;
55288;SDS011;41154;45.394;5.734;2022-12-31T03:09:35;11.57;;;7.07;;
55288;SDS011;41154;45.394;5.734;2022-12-31T03:12:02;10.00;;;6.07;;
55288;SDS011;41154;45.394;5.734;2022-12-31T03:14:48;13.60;;;7.60;;
55288;SDS011;41154;45.394;5.734;2022-12-31T03:17:14;13.43;;;6.90;;
55288;SDS011;41154;45.394;5.734;2022-12-31T03:19:40;13.85;;;7.25;;
55288;SDS011;41154;45.394;5.734;2022-12-31T03:22:24;12.18;;;6.90;;
55288;SDS011;41154;45.394;5.734;2022-12-31T03:28:06;14.95;;;8.23;;
55288;SDS011;41154;45.394;5.734;2022-12-31T03:30:33;16.38;;;8.40;;
55288;SDS011;41154;45.394;5.734;2022-12-31T03:33:01;19.05;;;7.93;;
55288;SDS011;41154;45.394;5.734;2022-12-31T03:35:29;12.88;;;7.72;;
55288;SDS011;41154;45.394;5.734;2022-12-31T03:37:57;11.30;;;6.82;;
55288;SDS011;41154;45.394;5.734;2022-12-31T03:40:25;12.48;;;7.63;;
55288;SDS011;41154;45.394;5.734;2022-12-31T03:42:51;13.23;;;7.55;;
55288;SDS011;41154;45.394;5.734;2022-12-31T03:45:17;13.40;;;7.53;;
55288;SDS011;41154;45.394;5.734;2022-12-31T03:47:43;11.63;;;6.80;;
55288;SDS011;41154;45.394;5.734;2022-12-31T03:50:10;11.68;;;6.78;;
55288;SDS011;41154;45.394;5.734;2022-12-31T03:52:38;13.00;;;6.85;;
55288;SDS011;41154;45.394;5.734;2022-12-31T03:55:04;12.57;;;7.22;;
55288;SDS011;41154;45.394;5.734;2022-12-31T03:57:30;12.35;;;6.55;;
55288;SDS011;41154;45.394;5.734;2022-12-31T03:59:57;11.00;;;6.05;;
55288;SDS011;41154;45.394;5.734;2022-12-31T04:02:23;11.38;;;6.57;;
55288;SDS011;41154;45.394;5.734;2022-12-31T04:04:49;14.20;;;6.60;;
55288;SDS011;41154;45.394;5.734;2022-12-31T04:07:15;9.70;;;6.00;;
55288;SDS011;41154;45.394;5.734;2022-12-31T04:09:41;16.30;;;6.32;;
55288;SDS011;41154;45.394;5.734;2022-12-31T04:12:06;9.82;;;6.28;;
55288;SDS011;41154;45.394;5.734;2022-12-31T04:14:32;8.45;;;6.00;;
55288;SDS011;41154;45.394;5.734;2022-12-31T04:16:58;8.50;;;5.82;;
55288;SDS011;41154;45.394;5.734;2022-12-31T04:19:23;10.20;;;5.78;;
55288;SDS011;41154;45.394;5.734;2022-12-31T04:21:49;12.02;;;6.43;;
55288;SDS011;41154;45.394;5.734;2022-12-31T04:24:15;10.18;;;5.35;;
55288;SDS011;41154;45.394;5.734;2022-12-31T04:26:41;9.25;;;5.70;;
55288;SDS011;41154;45.394;5.734;2022-12-31T04:29:08;7.30;;;5.13;;
55288;SDS011;41154;45.394;5.734;2022-12-31T04:31:34;9.60;;;5.65;;
55288;SDS011;41154;45.394;5.734;2022-12-31T04:34:01;10.32;;;6.15;;
55288;SDS011;41154;45.394;5.734;2022-12-31T04:36:26;8.30;;;4.93;;
55288;SDS011;41154;45.394;5.734;2022-12-31T04:38:52;8.70;;;4.90;;
55288;SDS011;41154;45.394;5.734;2022-12-31T04:41:18;9.65;;;5.10;;
55288;SDS011;41154;45.394;5.734;2022-12-31T04:43:55;8.10;;;4.20;;
55288;SDS011;41154;45.394;5.734;2022-12-31T04:46:23;7.07;;;4.28;;
55288;SDS011;41154;45.394;5.734;2022-12-31T04:48:53;7.28;;;3.90;;
55288;SDS011;41154;45.394;5.734;2022-12-31T04:51:20;6.25;;;3.28;;
55288;SDS011;41154;45.394;5.734;2022-12-31T04:53:46;8.38;;;3.80;;
55288;SDS011;41154;45.394;5.734;2022-12-31T04:56:12;6.97;;;4.28;;
55288;SDS011;41154;45.394;5.734;2022-12-31T04:58:39;5.88;;;3.70;;
55288;SDS011;41154;45.394;5.734;2022-12-31T05:01:05;8.02;;;3.75;;
55288;SDS011;41154;45.394;5.734;2022-12-31T05:03:31;6.65;;;3.17;;
55288;SDS011;41154;45.394;5.734;2022-12-31T05:06:01;5.55;;;3.58;;
55288;SDS011;41154;45.394;5.734;2022-12-31T05:08:32;6.03;;;3.77;;
55288;SDS011;41154;45.394;5.734;2022-12-31T05:10:58;8.38;;;4.80;;
55288;SDS011;41154;45.394;5.734;2022-12-31T05:13:24;6.55;;;4.70;;
55288;SDS011;41154;45.394;5.734;2022-12-31T05:15:50;5.72;;;3.95;;
55288;SDS011;41154;45.394;5.734;2022-12-31T05:18:17;7.15;;;4.63;;
55288;SDS011;41154;45.394;5.734;2022-12-31T05:20:43;9.40;;;5.00;;
55288;SDS011;41154;45.394;5.734;2022-12-31T05:23:09;9.70;;;5.63;;
55288;SDS011;41154;45.394;5.734;2022-12-31T05:25:34;8.55;;;4.70;;
55288;SDS011;41154;45.394;5.734;2022-12-31T05:28:01;6.82;;;4.20;;
55288;SDS011;41154;45.394;5.734;2022-12-31T05:30:26;6.15;;;3.65;;
55288;SDS011;41154;45.394;5.734;2022-12-31T05:32:52;6.57;;;3.83;;
55288;SDS011;41154;45.394;5.734;2022-12-31T05:35:18;8.20;;;4.10;;
55288;SDS011;41154;45.394;5.734;2022-12-31T05:37:44;4.03;;;2.92;;
55288;SDS011;41154;45.394;5.734;2022-12-31T05:40:11;6.38;;;3.67;;
55288;SDS011;41154;45.394;5.734;2022-12-31T05:42:37;4.25;;;2.40;;
55288;SDS011;41154;45.394;5.734;2022-12-31T05:45:04;3.72;;;2.67;;
55288;SDS011;41154;45.394;5.734;2022-12-31T05:47:30;5.57;;;3.65;;
55288;SDS011;41154;45.394;5.734;2022-12-31T05:49:56;7.80;;;4.70;;
55288;SDS011;41154;45.394;5.734;2022-12-31T05:52:22;8.10;;;5.75;;
55288;SDS011;41154;45.394;5.734;2022-12-31T05:54:48;11.35;;;4.78;;
55288;SDS011;41154;45.394;5.734;2022-12-31T05:57:13;7.63;;;4.68;;
55288;SDS011;41154;45.394;5.734;2022-12-31T05:59:39;6.57;;;4.05;;
55288;SDS011;41154;45.394;5.734;2022-12-31T06:02:05;5.57;;;3.38;;
55288;SDS011;41154;45.394;5.734;2022-12-31T06:04:32;4.63;;;3.08;;
55288;SDS011;41154;45.394;5.734;2022-12-31T06:06:57;6.47;;;2.85;;
55288;SDS011;41154;45.394;5.734;2022-12-31T06:09:23;4.65;;;2.85;;
55288;SDS011;41154;45.394;5.734;2022-12-31T06:11:49;5.30;;;2.55;;
55288;SDS011;41154;45.394;5.734;2022-12-31T06:14:15;4.50;;;2.83;;
55288;SDS011;41154;45.394;5.734;2022-12-31T06:16:40;6.10;;;3.20;;
55288;SDS011;41154;45.394;5.734;2022-12-31T06:19:07;4.50;;;3.33;;
55288;SDS011;41154;45.394;5.734;2022-12-31T06:21:33;8.95;;;3.53;;
55288;SDS011;41154;45.394;5.734;2022-12-31T06:23:59;8.35;;;4.28;;
55288;SDS011;41154;45.394;5.734;2022-12-31T06:26:25;5.72;;;3.58;;
55288;SDS011;41154;45.394;5.734;2022-12-31T06:28:51;6.50;;;4.13;;
55288;SDS011;41154;45.394;5.734;2022-12-31T06:31:17;5.93;;;3.83;;
55288;SDS011;41154;45.394;5.734;2022-12-31T06:33:43;8.00;;;4.47;;
55288;SDS011;41154;45.394;5.734;2022-12-31T06:36:12;6.70;;;3.97;;
55288;SDS011;41154;45.394;5.734;2022-12-31T06:38:39;6.90;;;3.38;;
55288;SDS011;41154;45.394;5.734;2022-12-31T06:41:06;5.80;;;4.07;;
55288;SDS011;41154;45.394;5.734;2022-12-31T06:43:34;4.88;;;3.05;;
55288;SDS011;41154;45.394;5.734;2022-12-31T06:46:01;5.78;;;3.42;;
55288;SDS011;41154;45.394;5.734;2022-12-31T06:48:31;9.13;;;5.10;;
55288;SDS011;41154;45.394;5.734;2022-12-31T06:51:07;9.27;;;5.15;;
55288;SDS011;41154;45.394;5.734;2022-12-31T06:53:35;8.65;;;5.50;;
55288;SDS011;41154;45.394;5.734;2022-12-31T06:56:34;6.72;;;4.25;;
55288;SDS011;41154;45.394;5.734;2022-12-31T06:58:53;8.52;;;5.07;;
55288;SDS011;41154;45.394;5.734;2022-12-31T07:01:41;12.48;;;6.05;;
55288;SDS011;41154;45.394;5.734;2022-12-31T07:07:25;10.52;;;5.32;;
55288;SDS011;41154;45.394;5.734;2022-12-31T07:15:38;13.60;;;7.88;;
55288;SDS011;41154;45.394;5.734;2022-12-31T07:21:11;4.72;;;3.35;;
55288;SDS011;41154;45.394;5.734;2022-12-31T07:23:39;5.07;;;3.47;;
55288;SDS011;41154;45.394;5.734;2022-12-31T07:48:23;8.10;;;4.85;;
55288;SDS011;41154;45.394;5.734;2022-12-31T07:50:51;9.32;;;3.90;;
55288;SDS011;41154;45.394;5.734;2022-12-31T07:53:24;9.25;;;3.97;;
55288;SDS011;41154;45.394;5.734;2022-12-31T07:55:52;12.52;;;4.78;;
55288;SDS011;41154;45.394;5.734;2022-12-31T08:01:13;12.45;;;6.70;;
55288;SDS011;41154;45.394;5.734;2022-12-31T08:09:10;10.40;;;5.55;;
55288;SDS011;41154;45.394;5.734;2022-12-31T08:14:24;12.43;;;4.93;;
55288;SDS011;41154;45.394;5.734;2022-12-31T08:16:51;10.13;;;5.38;;
55288;SDS011;41154;45.394;5.734;2022-12-31T08:19:22;16.27;;;5.03;;
55288;SDS011;41154;45.394;5.734;2022-12-31T08:22:02;11.45;;;5.13;;
55288;SDS011;41154;45.394;5.734;2022-12-31T08:24:54;14.27;;;5.47;;
55288;SDS011;41154;45.394;5.734;2022-12-31T08:27:36;16.15;;;6.80;;
55288;SDS011;41154;45.394;5.734;2022-12-31T08:30:24;14.45;;;5.70;;
55288;SDS011;41154;45.394;5.734;2022-12-31T08:35:55;15.55;;;6.35;;
55288;SDS011;41154;45.394;5.734;2022-12-31T08:46:22;11.60;;;5.65;;
55288;SDS011;41154;45.394;5.734;2022-12-31T08:48:53;10.95;;;6.20;;
55288;SDS011;41154;45.394;5.734;2022-12-31T08:51:20;10.07;;;6.40;;
55288;SDS011;41154;45.394;5.734;2022-12-31T08:53:47;14.38;;;6.15;;
55288;SDS011;41154;45.394;5.734;2022-12-31T09:07:05;8.85;;;5.30;;
55288;SDS011;41154;45.394;5.734;2022-12-31T09:12:49;9.00;;;5.32;;
55288;SDS011;41154;45.394;5.734;2022-12-31T09:15:34;12.57;;;7.70;;
55288;SDS011;41154;45.394;5.734;2022-12-31T09:18:06;13.10;;;7.90;;
55288;SDS011;41154;45.394;5.734;2022-12-31T09:20:34;12.45;;;7.25;;
55288;SDS011;41154;45.394;5.734;2022-12-31T09:23:01;11.45;;;7.35;;
55288;SDS011;41154;45.394;5.734;2022-12-31T09:25:28;12.88;;;6.93;;
55288;SDS011;41154;45.394;5.734;2022-12-31T09:30:29;13.10;;;7.85;;
55288;SDS011;41154;45.394;5.734;2022-12-31T09:36:07;13.77;;;7.13;;
55288;SDS011;41154;45.394;5.734;2022-12-31T09:39:38;10.90;;;6.78;;
55288;SDS011;41154;45.394;5.734;2022-12-31T09:50:32;10.00;;;6.22;;
55288;SDS011;41154;45.394;5.734;2022-12-31T09:53:22;10.52;;;6.22;;
55288;SDS011;41154;45.394;5.734;2022-12-31T10:01:49;11.02;;;6.82;;
55288;SDS011;41154;45.394;5.734;2022-12-31T10:10:04;11.88;;;6.35;;
55288;SDS011;41154;45.394;5.734;2022-12-31T10:13:00;10.40;;;6.47;;
55288;SDS011;41154;45.394;5.734;2022-12-31T10:24:33;9.30;;;5.72;;
55288;SDS011;41154;45.394;5.734;2022-12-31T10:27:54;9.63;;;5.82;;
55288;SDS011;41154;45.394;5.734;2022-12-31T10:30:25;8.40;;;6.03;;
55288;SDS011;41154;45.394;5.734;2022-12-31T10:39:06;8.20;;;5.18;;
55288;SDS011;41154;45.394;5.734;2022-12-31T11:01:17;4.00;;;2.38;;
55288;SDS011;41154;45.394;5.734;2022-12-31T11:12:21;3.75;;;2.28;;
55288;SDS011;41154;45.394;5.734;2022-12-31T11:14:59;3.53;;;2.40;;
55288;SDS011;41154;45.394;5.734;2022-12-31T11:17:37;4.22;;;2.35;;
55288;SDS011;41154;45.394;5.734;2022-12-31T11:20:32;3.88;;;2.58;;
55288;SDS011;41154;45.394;5.734;2022-12-31T11:26:00;3.97;;;1.90;;
55288;SDS011;41154;45.394;5.734;2022-12-31T11:28:41;4.32;;;2.47;;
55288;SDS011;41154;45.394;5.734;2022-12-31T11:34:02;5.22;;;2.75;;
55288;SDS011;41154;45.394;5.734;2022-12-31T11:36:40;3.72;;;2.20;;
55288;SDS011;41154;45.394;5.734;2022-12-31T11:41:49;4.60;;;2.58;;
55288;SDS011;41154;45.394;5.734;2022-12-31T11:53:03;5.55;;;2.28;;
55288;SDS011;41154;45.394;5.734;2022-12-31T11:58:24;3.28;;;2.33;;
55288;SDS011;41154;45.394;5.734;2022-12-31T12:01:01;4.18;;;2.30;;
55288;SDS011;41154;45.394;5.734;2022-12-31T12:03:35;3.75;;;2.33;;
55288;SDS011;41154;45.394;5.734;2022-12-31T12:06:14;6.15;;;2.70;;
55288;SDS011;41154;45.394;5.734;2022-12-31T12:08:42;5.63;;;2.80;;
55288;SDS011;41154;45.394;5.734;2022-12-31T12:11:32;4.88;;;2.60;;
55288;SDS011;41154;45.394;5.734;2022-12-31T12:13:59;4.35;;;2.42;;
55288;SDS011;41154;45.394;5.734;2022-12-31T12:16:24;4.75;;;2.47;;
55288;SDS011;41154;45.394;5.734;2022-12-31T12:19:05;5.28;;;2.33;;
55288;SDS011;41154;45.394;5.734;2022-12-31T12:21:44;4.50;;;3.15;;
55288;SDS011;41154;45.394;5.734;2022-12-31T12:24:27;3.22;;;2.05;;
55288;SDS011;41154;45.394;5.734;2022-12-31T12:26:54;4.47;;;2.53;;
55288;SDS011;41154;45.394;5.734;2022-12-31T12:29:29;4.55;;;2.42;;
55288;SDS011;41154;45.394;5.734;2022-12-31T12:31:58;3.80;;;2.20;;
55288;SDS011;41154;45.394;5.734;2022-12-31T12:34:29;4.18;;;2.58;;
55288;SDS011;41154;45.394;5.734;2022-12-31T12:36:59;3.85;;;2.45;;
55288;SDS011;41154;45.394;5.734;2022-12-31T12:39:26;4.30;;;2.35;;
55288;SDS011;41154;45.394;5.734;2022-12-31T12:42:08;3.53;;;2.22;;
55288;SDS011;41154;45.394;5.734;2022-12-31T12:44:36;5.15;;;2.28;;
55288;SDS011;41154;45.394;5.734;2022-12-31T12:47:05;5.78;;;2.20;;
55288;SDS011;41154;45.394;5.734;2022-12-31T12:49:40;4.20;;;2.58;;
55288;SDS011;41154;45.394;5.734;2022-12-31T12:57:44;4.10;;;2.05;;
55288;SDS011;41154;45.394;5.734;2022-12-31T13:00:23;4.88;;;2.50;;
55288;SDS011;41154;45.394;5.734;2022-12-31T13:08:41;2.95;;;2.00;;
55288;SDS011;41154;45.394;5.734;2022-12-31T13:14:24;3.40;;;2.17;;
55288;SDS011;41154;45.394;5.734;2022-12-31T13:19:57;3.47;;;2.10;;
55288;SDS011;41154;45.394;5.734;2022-12-31T13:28:20;5.13;;;2.10;;
55288;SDS011;41154;45.394;5.734;2022-12-31T13:30:49;6.43;;;1.88;;
55288;SDS011;41154;45.394;5.734;2022-12-31T13:33:33;4.50;;;2.15;;
55288;SDS011;41154;45.394;5.734;2022-12-31T13:36:04;4.57;;;1.90;;
55288;SDS011;41154;45.394;5.734;2022-12-31T13:38:33;5.00;;;2.20;;
55288;SDS011;41154;45.394;5.734;2022-12-31T13:41:04;5.65;;;2.40;;
55288;SDS011;41154;45.394;5.734;2022-12-31T13:44:02;6.00;;;2.35;;
55288;SDS011;41154;45.394;5.734;2022-12-31T13:47:03;3.85;;;2.20;;
55288;SDS011;41154;45.394;5.734;2022-12-31T13:49:45;4.20;;;2.38;;
55288;SDS011;41154;45.394;5.734;2022-12-31T13:55:03;5.47;;;2.25;;
55288;SDS011;41154;45.394;5.734;2022-12-31T14:03:33;5.25;;;2.30;;
55288;SDS011;41154;45.394;5.734;2022-12-31T14:06:22;3.90;;;2.08;;
55288;SDS011;41154;45.394;5.734;2022-12-31T14:08:50;3.83;;;2.10;;
55288;SDS011;41154;45.394;5.734;2022-12-31T14:16:34;2.95;;;2.20;;
55288;SDS011;41154;45.394;5.734;2022-12-31T14:19:27;3.30;;;1.92;;
55288;SDS011;41154;45.394;5.734;2022-12-31T14:22:26;4.35;;;2.10;;
55288;SDS011;41154;45.394;5.734;2022-12-31T14:24:59;4.28;;;2.17;;
55288;SDS011;41154;45.394;5.734;2022-12-31T14:27:28;3.83;;;2.13;;
55288;SDS011;41154;45.394;5.734;2022-12-31T14:30:05;4.53;;;2.25;;
55288;SDS011;41154;45.394;5.734;2022-12-31T14:32:46;3.90;;;2.30;;
55288;SDS011;41154;45.394;5.734;2022-12-31T14:46:49;3.33;;;1.95;;
55288;SDS011;41154;45.394;5.734;2022-12-31T14:52:22;6.85;;;2.90;;
55288;SDS011;41154;45.394;5.734;2022-12-31T14:54:59;4.13;;;2.58;;
55288;SDS011;41154;45.394;5.734;2022-12-31T14:57:36;4.22;;;2.28;;
55288;SDS011;41154;45.394;5.734;2022-12-31T15:05:50;3.92;;;2.20;;
55288;SDS011;41154;45.394;5.734;2022-12-31T15:19:01;4.15;;;2.22;;
55288;SDS011;41154;45.394;5.734;2022-12-31T15:21:55;4.70;;;2.80;;
55288;SDS011;41154;45.394;5.734;2022-12-31T15:24:28;6.10;;;3.90;;
55288;SDS011;41154;45.394;5.734;2022-12-31T15:27:04;5.07;;;2.92;;
55288;SDS011;41154;45.394;5.734;2022-12-31T15:29:43;6.90;;;3.88;;
55288;SDS011;41154;45.394;5.734;2022-12-31T15:32:16;6.15;;;3.47;;
55288;SDS011;41154;45.394;5.734;2022-12-31T15:34:44;8.07;;;3.58;;
55288;SDS011;41154;45.394;5.734;2022-12-31T15:37:30;5.95;;;3.63;;
55288;SDS011;41154;45.394;5.734;2022-12-31T15:40:14;6.15;;;3.95;;
55288;SDS011;41154;45.394;5.734;2022-12-31T15:42:42;7.13;;;4.40;;
55288;SDS011;41154;45.394;5.734;2022-12-31T15:45:15;5.30;;;3.42;;
55288;SDS011;41154;45.394;5.734;2022-12-31T15:47:48;8.00;;;3.22;;
55288;SDS011;41154;45.394;5.734;2022-12-31T15:50:20;6.20;;;3.42;;
55288;SDS011;41154;45.394;5.734;2022-12-31T15:52:54;9.95;;;3.88;;
55288;SDS011;41154;45.394;5.734;2022-12-31T15:58:03;6.32;;;3.22;;
55288;SDS011;41154;45.394;5.734;2022-12-31T16:01:14;6.22;;;3.30;;
55288;SDS011;41154;45.394;5.734;2022-12-31T16:03:41;5.40;;;3.25;;
55288;SDS011;41154;45.394;5.734;2022-12-31T16:06:11;5.78;;;3.42;;
55288;SDS011;41154;45.394;5.734;2022-12-31T16:08:39;5.53;;;2.97;;
55288;SDS011;41154;45.394;5.734;2022-12-31T16:11:09;5.63;;;3.20;;
55288;SDS011;41154;45.394;5.734;2022-12-31T16:13:38;6.30;;;3.28;;
55288;SDS011;41154;45.394;5.734;2022-12-31T16:16:17;6.28;;;3.38;;
55288;SDS011;41154;45.394;5.734;2022-12-31T16:18:45;6.28;;;4.45;;
55288;SDS011;41154;45.394;5.734;2022-12-31T16:21:21;6.30;;;3.78;;
55288;SDS011;41154;45.394;5.734;2022-12-31T16:23:55;6.40;;;2.67;;
55288;SDS011;41154;45.394;5.734;2022-12-31T16:26:23;4.13;;;2.50;;
55288;SDS011;41154;45.394;5.734;2022-12-31T16:28:53;4.97;;;2.95;;
55288;SDS011;41154;45.394;5.734;2022-12-31T16:31:24;31.75;;;18.08;;
55288;SDS011;41154;45.394;5.734;2022-12-31T16:34:00;8.15;;;4.20;;
55288;SDS011;41154;45.394;5.734;2022-12-31T16:36:30;7.43;;;4.05;;
55288;SDS011;41154;45.394;5.734;2022-12-31T16:39:04;21.13;;;12.57;;
55288;SDS011;41154;45.394;5.734;2022-12-31T16:41:51;8.43;;;5.25;;
55288;SDS011;41154;45.394;5.734;2022-12-31T16:44:30;8.52;;;5.03;;
55288;SDS011;41154;45.394;5.734;2022-12-31T16:46:57;9.27;;;5.07;;
55288;SDS011;41154;45.394;5.734;2022-12-31T16:49:25;6.75;;;4.18;;
55288;SDS011;41154;45.394;5.734;2022-12-31T16:51:53;8.35;;;4.10;;
55288;SDS011;41154;45.394;5.734;2022-12-31T16:54:24;10.63;;;5.80;;
55288;SDS011;41154;45.394;5.734;2022-12-31T16:56:55;8.98;;;5.22;;
55288;SDS011;41154;45.394;5.734;2022-12-31T17:01:58;9.68;;;4.85;;
55288;SDS011;41154;45.394;5.734;2022-12-31T17:04:25;10.02;;;5.00;;
55288;SDS011;41154;45.394;5.734;2022-12-31T17:06:51;9.88;;;6.13;;
55288;SDS011;41154;45.394;5.734;2022-12-31T17:09:18;14.75;;;5.60;;
55288;SDS011;41154;45.394;5.734;2022-12-31T17:11:56;7.40;;;4.78;;
55288;SDS011;41154;45.394;5.734;2022-12-31T17:14:39;11.82;;;4.68;;
55288;SDS011;41154;45.394;5.734;2022-12-31T17:17:13;9.50;;;4.60;;
55288;SDS011;41154;45.394;5.734;2022-12-31T17:19:54;14.52;;;5.75;;
55288;SDS011;41154;45.394;5.734;2022-12-31T17:22:35;12.63;;;4.75;;
55288;SDS011;41154;45.394;5.734;2022-12-31T17:25:06;8.30;;;4.55;;
55288;SDS011;41154;45.394;5.734;2022-12-31T17:33:24;14.77;;;8.10;;
55288;SDS011;41154;45.394;5.734;2022-12-31T17:35:55;12.98;;;5.70;;
55288;SDS011;41154;45.394;5.734;2022-12-31T17:38:37;12.43;;;5.78;;
55288;SDS011;41154;45.394;5.734;2022-12-31T17:43:32;11.05;;;5.93;;
55288;SDS011;41154;45.394;5.734;2022-12-31T17:46:00;9.98;;;4.75;;
55288;SDS011;41154;45.394;5.734;2022-12-31T17:48:26;10.93;;;5.18;;
55288;SDS011;41154;45.394;5.734;2022-12-31T17:50:55;9.85;;;5.05;;
55288;SDS011;41154;45.394;5.734;2022-12-31T17:53:23;12.63;;;5.30;;
55288;SDS011;41154;45.394;5.734;2022-12-31T17:55:53;9.68;;;4.70;;
55288;SDS011;41154;45.394;5.734;2022-12-31T17:58:29;7.63;;;4.55;;
55288;SDS011;41154;45.394;5.734;2022-12-31T18:00:56;25.67;;;13.68;;
55288;SDS011;41154;45.394;5.734;2022-12-31T18:03:22;13.40;;;7.65;;
55288;SDS011;41154;45.394;5.734;2022-12-31T18:05:48;13.80;;;8.10;;
55288;SDS011;41154;45.394;5.734;2022-12-31T18:08:14;13.98;;;7.50;;
55288;SDS011;41154;45.394;5.734;2022-12-31T18:10:40;12.18;;;7.63;;
55288;SDS011;41154;45.394;5.734;2022-12-31T18:13:12;12.40;;;6.47;;
55288;SDS011;41154;45.394;5.734;2022-12-31T18:15:41;13.15;;;6.28;;
55288;SDS011;41154;45.394;5.734;2022-12-31T18:18:17;25.15;;;12.63;;
55288;SDS011;41154;45.394;5.734;2022-12-31T18:20:45;11.00;;;6.05;;
55288;SDS011;41154;45.394;5.734;2022-12-31T18:23:23;8.25;;;4.97;;
55288;SDS011;41154;45.394;5.734;2022-12-31T18:25:52;11.05;;;6.05;;
55288;SDS011;41154;45.394;5.734;2022-12-31T18:28:17;10.57;;;5.80;;
55288;SDS011;41154;45.394;5.734;2022-12-31T18:30:44;14.25;;;7.05;;
55288;SDS011;41154;45.394;5.734;2022-12-31T18:33:11;12.80;;;8.68;;
55288;SDS011;41154;45.394;5.734;2022-12-31T18:35:38;13.90;;;8.80;;
55288;SDS011;41154;45.394;5.734;2022-12-31T18:38:14;13.63;;;7.60;;
55288;SDS011;41154;45.394;5.734;2022-12-31T18:40:43;13.93;;;7.60;;
55288;SDS011;41154;45.394;5.734;2022-12-31T18:43:15;10.25;;;6.07;;
55288;SDS011;41154;45.394;5.734;2022-12-31T18:45:43;14.23;;;5.95;;
55288;SDS011;41154;45.394;5.734;2022-12-31T18:48:10;9.00;;;5.00;;
55288;SDS011;41154;45.394;5.734;2022-12-31T18:50:35;10.48;;;5.28;;
55288;SDS011;41154;45.394;5.734;2022-12-31T18:53:02;11.57;;;5.72;;
55288;SDS011;41154;45.394;5.734;2022-12-31T18:55:38;10.00;;;5.50;;
55288;SDS011;41154;45.394;5.734;2022-12-31T18:58:11;10.75;;;6.28;;
55288;SDS011;41154;45.394;5.734;2022-12-31T19:00:37;14.40;;;7.15;;
55288;SDS011;41154;45.394;5.734;2022-12-31T19:03:03;17.35;;;6.65;;
55288;SDS011;41154;45.394;5.734;2022-12-31T19:05:30;9.93;;;6.57;;
55288;SDS011;41154;45.394;5.734;2022-12-31T19:07:58;11.75;;;5.35;;
55288;SDS011;41154;45.394;5.734;2022-12-31T19:10:24;10.10;;;5.22;;
55288;SDS011;41154;45.394;5.734;2022-12-31T19:12:51;8.50;;;5.45;;
55288;SDS011;41154;45.394;5.734;2022-12-31T19:15:22;9.68;;;5.25;;
55288;SDS011;41154;45.394;5.734;2022-12-31T19:17:51;7.40;;;4.68;;
55288;SDS011;41154;45.394;5.734;2022-12-31T19:20:16;10.07;;;4.88;;
55288;SDS011;41154;45.394;5.734;2022-12-31T19:22:42;8.90;;;5.43;;
55288;SDS011;41154;45.394;5.734;2022-12-31T19:25:14;13.50;;;8.52;;
55288;SDS011;41154;45.394;5.734;2022-12-31T19:27:42;18.50;;;9.50;;
55288;SDS011;41154;45.394;5.734;2022-12-31T19:30:41;16.77;;;9.50;;
55288;SDS011;41154;45.394;5.734;2022-12-31T19:33:00;15.50;;;9.52;;
55288;SDS011;41154;45.394;5.734;2022-12-31T19:35:26;16.02;;;8.32;;
55288;SDS011;41154;45.394;5.734;2022-12-31T19:37:52;14.82;;;8.55;;